Time;durP1;ratioP1;P1;durP2;ratioP2;P2;SDS_P1;SDS_P2;PMS_P1;PMS_P2;Temp;Humidity;BMP_temperature;BMP_pressure;BME280_temperature;BME280_humidity;BME280_pressure;Samples;Min_cycle;Max_cycle;Signal;HPM_P1;HPM_P2
2021/01/08 00:00:22;;;;;;;38.88;22.75;;;0.90;99.90;;;1.35;98.89;100141.66;4996766;28;20459;-83
2021/01/08 00:02:49;;;;;;;38.38;21.67;;;0.90;99.90;;;1.36;98.78;100150.72;4996402;28;20058;-81
2021/01/08 00:05:15;;;;;;;40.35;21.85;;;0.90;99.90;;;1.36;98.87;100139.72;4994204;28;20129;-81
2021/01/08 00:07:41;;;;;;;43.00;23.27;;;0.90;99.90;;;1.35;98.71;100141.66;4995504;28;20134;-81
2021/01/08 00:10:09;;;;;;;37.95;21.65;;;0.90;99.90;;;1.38;99.02;100148.50;4995547;28;20040;-83
2021/01/08 00:12:37;;;;;;;36.50;20.63;;;0.90;99.90;;;1.33;98.85;100138.41;4995488;28;20030;-83
2021/01/08 00:15:08;;;;;;;39.55;21.55;;;0.90;99.90;;;1.37;98.80;100144.13;4995624;28;20030;-83
2021/01/08 00:17:34;;;;;;;40.55;22.80;;;0.90;99.90;;;1.35;99.01;100152.66;4995537;28;20045;-81
2021/01/08 00:20:01;;;;;;;38.10;22.42;;;0.90;99.90;;;1.39;98.68;100156.44;4995400;28;20038;-83
2021/01/08 00:22:27;;;;;;;39.47;21.17;;;0.90;99.90;;;1.34;98.86;100148.31;4995365;28;20030;-81
2021/01/08 00:24:54;;;;;;;41.88;22.52;;;0.90;99.90;;;1.35;99.06;100152.66;4996197;28;20046;-83
2021/01/08 00:27:22;;;;;;;40.38;23.58;;;0.90;99.90;;;1.41;98.92;100154.16;4995418;28;20038;-81
2021/01/08 00:29:50;;;;;;;41.85;22.67;;;0.90;99.90;;;1.39;99.21;100147.34;4995593;28;20081;-83
2021/01/08 00:32:20;;;;;;;43.80;22.90;;;0.90;99.90;;;1.41;99.08;100148.66;4994996;28;20536;-82
2021/01/08 00:34:48;;;;;;;42.15;23.42;;;0.90;99.90;;;1.41;99.10;100154.16;5001417;28;20536;-80
2021/01/08 00:37:14;;;;;;;46.03;23.90;;;1.00;99.90;;;1.37;98.92;100146.88;5006996;28;20061;-81
2021/01/08 00:39:41;;;;;;;42.50;22.80;;;1.00;99.90;;;1.41;99.21;100151.41;4995401;28;20449;-80
2021/01/08 00:42:08;;;;;;;41.78;22.55;;;1.00;99.90;;;1.43;99.14;100151.13;4995007;28;20133;-81
2021/01/08 00:44:35;;;;;;;45.13;23.08;;;1.00;99.90;;;1.41;99.19;100148.66;4996374;28;20039;-82
2021/01/08 00:47:01;;;;;;;42.10;23.05;;;1.00;99.90;;;1.45;99.16;100152.44;4995032;28;20035;-80
2021/01/08 00:49:27;;;;;;;41.00;23.33;;;1.00;99.90;;;1.45;99.26;100157.13;4996269;28;20494;-82
2021/01/08 00:51:53;;;;;;;48.33;24.40;;;1.00;99.90;;;1.44;99.22;100153.59;4995015;28;20038;-82
2021/01/08 00:54:19;;;;;;;39.92;22.88;;;1.00;99.90;;;1.45;99.00;100155.19;5010308;28;20092;-80
2021/01/08 00:56:46;;;;;;;47.03;24.02;;;1.00;99.90;;;1.45;99.44;100151.63;4994907;28;20500;-83
2021/01/08 00:59:12;;;;;;;46.28;24.20;;;1.00;99.90;;;1.44;99.45;100150.84;4994735;28;20065;-82
2021/01/08 01:01:38;;;;;;;46.35;24.90;;;1.00;99.90;;;1.40;99.48;100152.56;4996161;28;20026;-81
2021/01/08 01:04:04;;;;;;;47.40;24.60;;;1.00;99.90;;;1.43;99.71;100148.38;4994945;28;20037;-83
2021/01/08 01:06:33;;;;;;;41.00;21.92;;;1.00;99.90;;;1.48;99.26;100159.25;4994192;28;20131;-82
2021/01/08 01:09:00;;;;;;;44.38;24.75;;;1.00;99.90;;;1.50;99.02;100159.78;4994276;28;20038;-82
2021/01/08 01:11:29;;;;;;;42.40;21.35;;;1.00;99.90;;;1.50;99.41;100157.84;4995004;28;20049;-81
2021/01/08 01:13:58;;;;;;;44.90;24.23;;;1.00;99.90;;;1.53;99.09;100153.66;4994874;28;20061;-79
2021/01/08 01:16:27;;;;;;;44.42;24.02;;;1.00;99.90;;;1.50;99.12;100155.09;4988131;28;20088;-80
2021/01/08 01:18:57;;;;;;;41.70;23.00;;;1.00;99.90;;;1.53;99.34;100159.97;4995505;28;20030;-81
2021/01/08 01:21:27;;;;;;;40.10;21.65;;;1.00;99.90;;;1.55;98.99;100165.16;4993490;28;20034;-81
2021/01/08 01:23:56;;;;;;;43.60;24.20;;;1.10;99.90;;;1.55;99.41;100168.72;4993766;28;20108;-80
2021/01/08 01:26:23;;;;;;;45.05;24.35;;;1.10;99.90;;;1.53;99.52;100173.75;4994631;28;20031;-83
2021/01/08 01:28:49;;;;;;;43.30;21.80;;;1.10;99.90;;;1.56;99.37;100166.78;5009956;28;20130;-81
2021/01/08 01:31:14;;;;;;;42.22;23.02;;;1.10;99.90;;;1.56;99.30;100164.03;4993864;28;20034;-82
2021/01/08 01:33:40;;;;;;;41.42;21.98;;;1.10;99.90;;;1.56;99.47;100166.78;4993134;28;20414;-81
2021/01/08 01:36:09;;;;;;;41.38;22.30;;;1.10;99.90;;;1.57;99.56;100165.69;4993337;28;20034;-79
2021/01/08 01:38:37;;;;;;;42.97;23.48;;;1.10;99.90;;;1.60;99.52;100173.31;4992842;28;20033;-83
2021/01/08 01:41:05;;;;;;;40.70;22.95;;;1.10;99.90;;;1.63;99.29;100174.63;4993371;28;20028;-82
2021/01/08 01:43:32;;;;;;;43.25;22.05;;;1.10;99.90;;;1.64;99.26;100173.50;4995017;28;20533;-82
2021/01/08 01:45:58;;;;;;;42.78;22.70;;;1.10;99.90;;;1.58;99.46;100187.38;4993257;28;20035;-81
2021/01/08 01:48:25;;;;;;;41.78;22.38;;;1.10;99.90;;;1.59;99.33;100174.44;4995161;28;20043;-83
2021/01/08 01:50:52;;;;;;;41.08;21.27;;;1.10;99.90;;;1.63;99.38;100174.63;4995114;28;20026;-85
2021/01/08 01:53:19;;;;;;;39.63;21.15;;;1.10;99.90;;;1.64;99.29;100171.53;4994290;28;20396;-82
2021/01/08 01:55:47;;;;;;;41.47;22.05;;;1.10;99.90;;;1.64;99.32;100179.81;4995142;28;20069;-81
2021/01/08 01:58:15;;;;;;;43.75;23.77;;;1.10;99.90;;;1.64;99.10;100179.81;4994197;28;20093;-80
2021/01/08 02:00:42;;;;;;;39.90;20.83;;;1.10;99.90;;;1.65;99.34;100175.94;4993529;28;20132;-80
2021/01/08 02:03:24;;;;;;;39.40;21.67;;;1.10;99.90;;;1.67;98.94;100179.19;4994619;28;20034;-81
2021/01/08 02:06:02;;;;;;;41.65;22.27;;;1.20;99.90;;;1.68;99.30;100182.75;5022654;22;20123;-88
2021/01/08 02:08:28;;;;;;;39.15;21.45;;;1.10;99.90;;;1.68;98.97;100183.56;5039468;28;20055;-87
2021/01/08 02:11:14;;;;;;;39.55;21.00;;;1.10;99.90;;;1.68;99.28;100182.75;5040264;28;20025;-87
2021/01/08 02:14:10;;;;;;;40.83;20.92;;;1.10;99.90;;;1.67;99.05;100181.94;5044788;28;20032;-84
2021/01/08 02:16:41;;;;;;;46.25;23.42;;;1.20;99.90;;;1.66;99.33;100190.50;5054050;28;20068;-83
2021/01/08 02:19:21;;;;;;;41.00;21.63;;;1.20;99.90;;;1.68;99.21;100191.00;5021327;28;20022;-86
2021/01/08 02:22:05;;;;;;;43.13;23.27;;;1.20;99.90;;;1.67;99.51;100189.41;4999595;28;20026;-83
2021/01/08 02:24:41;;;;;;;43.65;22.30;;;1.20;99.90;;;1.70;99.06;100192.34;4999781;28;20401;-83
2021/01/08 02:27:07;;;;;;;43.63;22.60;;;1.20;99.90;;;1.72;98.96;100192.03;5000115;28;20088;-84
2021/01/08 02:29:54;;;;;;;40.05;20.98;;;1.20;99.90;;;1.76;99.25;100193.03;5000398;28;20053;-84
2021/01/08 02:32:20;;;;;;;43.80;22.55;;;1.20;99.90;;;1.74;99.09;100189.75;4999809;28;20033;-86
2021/01/08 02:34:47;;;;;;;37.50;20.52;;;1.20;99.90;;;1.76;99.06;100198.53;4999669;28;20030;-86
2021/01/08 02:37:13;;;;;;;42.17;21.77;;;1.20;99.90;;;1.79;99.21;100196.00;5000283;28;20026;-85
2021/01/08 02:39:43;;;;;;;42.15;21.15;;;1.30;99.90;;;1.81;98.92;100207.50;5000533;28;20398;-85
2021/01/08 02:42:15;;;;;;;39.13;20.38;;;1.20;99.90;;;1.80;99.29;100199.56;5019000;28;20053;-85
2021/01/08 02:44:41;;;;;;;36.13;20.15;;;1.30;99.90;;;1.81;99.03;100206.69;5001567;28;20385;-85
2021/01/08 02:47:08;;;;;;;39.42;21.48;;;1.20;99.90;;;1.76;98.68;100195.78;5000289;28;20234;-87
2021/01/08 02:49:34;;;;;;;41.53;20.65;;;1.20;99.90;;;1.74;99.13;100195.28;5001768;28;20112;-85
2021/01/08 02:52:06;;;;;;;35.92;19.35;;;1.20;99.90;;;1.73;99.07;100196.41;5001344;28;20053;-86
2021/01/08 02:54:33;;;;;;;41.35;19.85;;;1.20;99.90;;;1.67;98.73;100192.16;5017971;28;20036;-85
2021/01/08 02:57:05;;;;;;;33.22;17.98;;;1.10;99.90;;;1.65;98.97;100191.63;5001982;28;20566;-85
2021/01/08 02:59:34;;;;;;;40.42;19.67;;;1.10;99.90;;;1.67;98.93;100195.69;5019672;28;20485;-87
2021/01/08 03:02:01;;;;;;;37.28;18.88;;;1.10;99.90;;;1.66;99.07;100196.03;5001714;28;20037;-85
2021/01/08 03:04:29;;;;;;;31.42;18.02;;;1.10;99.90;;;1.66;98.97;100201.53;5002288;28;20033;-87
2021/01/08 03:06:56;;;;;;;34.67;17.98;;;1.10;99.90;;;1.67;98.87;100201.19;5019798;28;20041;-85
2021/01/08 03:09:23;;;;;;;33.60;16.73;;;1.10;99.90;;;1.69;99.11;100206.41;5002129;28;20080;-85
2021/01/08 03:11:58;;;;;;;36.80;18.85;;;1.10;99.90;;;1.70;98.84;100206.13;5003066;28;20026;-85
2021/01/08 03:14:25;;;;;;;33.90;17.30;;;1.10;99.90;;;1.72;98.80;100208.53;5019988;28;20029;-84
2021/01/08 03:16:51;;;;;;;32.28;18.33;;;1.10;99.90;;;1.70;98.61;100206.13;4999435;28;20045;-84
2021/01/08 03:19:17;;;;;;;37.42;19.17;;;1.10;99.90;;;1.72;98.98;100212.13;5016648;28;20034;-84
2021/01/08 03:21:43;;;;;;;36.83;19.05;;;1.10;99.90;;;1.66;98.92;100207.84;4998983;28;20038;-83
2021/01/08 03:24:11;;;;;;;38.45;19.63;;;1.10;99.90;;;1.67;98.97;100209.47;4999595;28;20066;-85
2021/01/08 03:26:37;;;;;;;34.05;18.27;;;1.10;99.90;;;1.71;98.99;100204.16;5017556;28;20026;-83
2021/01/08 03:29:03;;;;;;;35.05;17.75;;;1.10;99.90;;;1.69;99.15;100209.16;4999583;28;20370;-85
2021/01/08 03:31:29;;;;;;;34.65;18.13;;;1.10;99.90;;;1.70;98.73;100208.06;4999447;28;20041;-86
2021/01/08 03:33:55;;;;;;;36.75;18.48;;;1.10;99.90;;;1.70;98.77;100205.31;5017190;28;20025;-83
2021/01/08 03:36:20;;;;;;;31.98;17.33;;;1.10;99.90;;;1.69;98.85;100209.97;4999484;28;20033;-85
2021/01/08 03:38:46;;;;;;;31.83;16.13;;;1.10;99.90;;;1.70;98.78;100202.53;5000049;28;20766;-88
2021/01/08 03:41:12;;;;;;;35.03;17.55;;;1.10;99.90;;;1.70;98.70;100206.13;5016862;28;20124;-85
2021/01/08 03:43:38;;;;;;;32.92;17.30;;;1.10;99.90;;;1.75;99.13;100213.44;5017478;28;20100;-86
2021/01/08 03:46:06;;;;;;;30.13;16.40;;;1.20;99.90;;;1.71;98.96;100209.66;5016675;28;20422;-85
2021/01/08 03:48:33;;;;;;;30.05;16.80;;;1.10;99.90;;;1.71;99.05;100212.41;4999409;28;20037;-85
2021/01/08 03:51:00;;;;;;;31.90;17.17;;;1.20;99.90;;;1.75;98.70;100216.19;4998838;28;20129;-83
2021/01/08 03:53:26;;;;;;;28.13;15.13;;;1.20;99.90;;;1.74;98.60;100215.38;4999030;28;20065;-84
2021/01/08 03:55:51;;;;;;;30.75;15.88;;;1.20;99.90;;;1.74;98.85;100217.28;4999003;28;20037;-85
2021/01/08 03:58:17;;;;;;;28.30;15.23;;;1.20;99.90;;;1.75;98.88;100214.25;5015842;28;20025;-84
2021/01/08 04:00:43;;;;;;;32.20;16.95;;;1.20;99.90;;;1.78;98.69;100218.31;5015810;28;20038;-85
2021/01/08 04:03:09;;;;;;;31.50;16.25;;;1.20;99.90;;;1.79;98.83;100220.78;5015409;28;20038;-86
2021/01/08 04:05:35;;;;;;;29.40;15.45;;;1.20;99.90;;;1.77;98.66;100209.22;5015460;28;20030;-87
2021/01/08 04:08:02;;;;;;;31.15;15.30;;;1.20;99.90;;;1.80;98.45;100210.56;4997915;28;20030;-87
2021/01/08 04:10:27;;;;;;;29.23;15.13;;;1.20;99.90;;;1.78;98.77;100213.63;4998518;28;20129;-84
2021/01/08 04:12:53;;;;;;;27.38;15.13;;;1.20;99.90;;;1.81;98.48;100214.94;4999221;28;20061;-85
2021/01/08 04:15:19;;;;;;;27.73;14.88;;;1.20;99.90;;;1.82;98.90;100219.31;4998637;28;20053;-87
2021/01/08 04:17:45;;;;;;;29.48;15.13;;;1.20;99.90;;;1.79;98.71;100225.47;5016273;28;20062;-86
2021/01/08 04:20:12;;;;;;;28.30;14.98;;;1.20;99.90;;;1.77;98.59;100223.00;4999314;28;20034;-88
2021/01/08 04:22:38;;;;;;;29.77;14.95;;;1.20;99.90;;;1.76;99.08;100218.63;4999451;28;20034;-87
2021/01/08 04:25:05;;;;;;;27.65;15.73;;;1.20;99.90;;;1.78;98.92;100229.31;5017340;28;20045;-88
2021/01/08 04:27:30;;;;;;;30.83;15.32;;;1.20;99.90;;;1.79;98.85;100223.53;4999642;28;20405;-86
2021/01/08 04:29:56;;;;;;;26.92;14.13;;;1.20;99.90;;;1.81;98.56;100223.19;5000521;28;20027;-86
2021/01/08 04:32:22;;;;;;;28.77;15.43;;;1.20;99.90;;;1.82;99.12;100217.41;5017755;28;20030;-84
2021/01/08 04:34:48;;;;;;;29.83;15.27;;;1.30;99.90;;;1.85;98.81;100218.72;5006621;28;20037;-86
2021/01/08 04:37:14;;;;;;;27.52;15.35;;;1.30;99.90;;;1.87;98.77;100224.72;5015624;28;20052;-86
2021/01/08 04:39:40;;;;;;;28.40;14.55;;;1.30;99.90;;;1.91;99.16;100222.97;4998508;28;20084;-87
2021/01/08 04:42:07;;;;;;;30.88;15.80;;;1.30;99.90;;;1.92;98.55;100222.66;4997796;28;20030;-87
2021/01/08 04:44:36;;;;;;;32.25;15.32;;;1.30;99.90;;;1.96;98.74;100226.41;5016486;28;20537;-84
2021/01/08 04:47:02;;;;;;;33.63;17.67;;;1.30;99.90;;;2.01;98.42;100225.50;5019992;28;20034;-86
2021/01/08 04:49:29;;;;;;;30.15;16.05;;;1.40;99.90;;;2.02;98.43;100229.88;5002920;28;20050;-87
2021/01/08 04:51:57;;;;;;;31.63;17.08;;;1.40;99.90;;;2.03;98.69;100231.50;5003206;28;20041;-85
2021/01/08 04:54:24;;;;;;;27.50;13.48;;;1.40;99.90;;;2.00;98.82;100240.38;5021329;28;20310;-86
2021/01/08 04:56:55;;;;;;;28.80;13.63;;;1.40;99.90;;;1.99;98.76;100239.56;5021586;28;20038;-85
2021/01/08 04:59:25;;;;;;;28.67;14.02;;;1.40;99.90;;;2.04;98.48;100238.63;5003643;28;20433;-84
2021/01/08 05:01:52;;;;;;;27.77;14.18;;;1.40;99.90;;;2.06;98.38;100239.94;5002061;28;20038;-84
2021/01/08 05:04:18;;;;;;;29.52;13.02;;;1.40;99.90;;;2.07;98.22;100244.34;5019907;28;20030;-86
2021/01/08 05:06:45;;;;;;;21.88;12.13;;;1.50;99.90;;;2.03;98.34;100235.06;5001836;28;20474;-84
2021/01/08 05:09:10;;;;;;;23.83;12.85;;;1.50;99.90;;;1.99;98.51;100236.81;5002174;28;20334;-86
2021/01/08 05:11:36;;;;;;;21.83;11.90;;;1.50;99.90;;;1.98;98.82;100242.63;5002506;28;20037;-86
2021/01/08 05:14:07;;;;;;;22.02;11.30;;;1.40;99.90;;;1.95;98.86;100235.81;5002601;28;20069;-86
2021/01/08 05:16:37;;;;;;;21.13;11.43;;;1.40;99.90;;;1.95;98.83;100240.50;5019968;28;20044;-84
2021/01/08 05:19:05;;;;;;;21.55;11.43;;;1.40;99.90;;;1.92;99.09;100239.19;5019586;28;20470;-86
2021/01/08 05:21:32;;;;;;;19.58;11.02;;;1.40;99.90;;;1.90;98.88;100241.44;5002461;28;20040;-87
2021/01/08 05:24:02;;;;;;;25.83;13.05;;;1.40;99.90;;;1.90;99.08;100248.88;5001840;28;20129;-83
2021/01/08 05:26:29;;;;;;;24.63;12.32;;;1.40;99.90;;;1.99;99.12;100241.53;5001501;28;20454;-85
2021/01/08 05:29:00;;;;;;;21.55;11.77;;;1.40;99.90;;;2.07;98.38;100249.84;5019217;28;20536;-86
2021/01/08 05:31:32;;;;;;;24.90;13.05;;;1.40;99.90;;;2.08;98.37;100253.41;5019409;28;20389;-85
2021/01/08 05:33:58;;;;;;;24.88;12.93;;;1.50;99.90;;;2.07;98.77;100252.59;5001748;28;20354;-85
2021/01/08 05:36:26;;;;;;;26.25;12.23;;;1.50;99.90;;;2.18;98.32;100261.44;5001471;28;20034;-84
2021/01/08 05:39:08;;;;;;;22.60;11.77;;;1.50;99.90;;;2.15;97.93;100266.75;5002993;28;20087;-84
2021/01/08 05:41:48;;;;;;;23.05;11.98;;;1.50;99.90;;;2.12;98.25;100257.97;5010386;28;20034;-83
2021/01/08 05:44:27;;;;;;;22.70;12.07;;;1.60;99.90;;;2.20;97.69;100267.44;5010267;28;20116;-84
2021/01/08 05:47:07;;;;;;;24.27;12.30;;;1.60;99.90;;;2.11;98.01;100261.88;5009573;28;20417;-83
2021/01/08 05:49:38;;;;;;;20.85;11.65;;;1.60;99.90;;;2.10;97.76;100267.69;5010304;28;20125;-83
2021/01/08 05:52:06;;;;;;;20.48;12.15;;;1.60;99.90;;;2.15;97.90;100264.84;5008779;28;20049;-82
2021/01/08 05:54:40;;;;;;;22.55;11.70;;;1.60;99.90;;;2.16;97.80;100279.41;5009210;28;20092;-84
2021/01/08 05:57:08;;;;;;;19.55;11.30;;;1.60;99.90;;;2.10;97.95;100271.25;5007502;28;20068;-84
2021/01/08 05:59:39;;;;;;;20.20;11.00;;;1.50;99.90;;;2.08;97.69;100279.03;5023420;28;20037;-84
2021/01/08 06:02:12;;;;;;;22.25;12.68;;;1.60;99.90;;;2.08;97.85;100265.25;5008119;28;20029;-85
2021/01/08 06:04:48;;;;;;;22.83;12.32;;;1.60;99.90;;;2.12;97.77;100274.50;5007773;28;20033;-84
2021/01/08 06:07:23;;;;;;;23.58;12.18;;;1.50;99.90;;;2.12;97.95;100268.19;5007300;28;20038;-84
2021/01/08 06:10:02;;;;;;;22.00;11.93;;;1.50;99.90;;;2.10;97.65;100273.19;5005899;28;20065;-85
2021/01/08 06:12:44;;;;;;;20.17;11.55;;;1.50;99.90;;;2.08;98.12;100272.69;5006206;28;20186;-84
2021/01/08 06:15:17;;;;;;;20.23;11.15;;;1.50;99.90;;;2.05;97.82;100270.56;5003808;28;20080;-86
2021/01/08 06:17:49;;;;;;;20.50;10.80;;;1.50;99.90;;;2.07;97.70;100276.56;5003533;28;20088;-84
2021/01/08 06:20:16;;;;;;;17.15;10.43;;;1.50;99.90;;;2.05;98.16;100274.16;5003964;28;20061;-86
2021/01/08 06:22:43;;;;;;;20.27;10.73;;;1.50;99.90;;;2.03;98.17;100273.63;5005060;28;20125;-82
2021/01/08 06:25:15;;;;;;;19.20;11.13;;;1.40;99.90;;;2.02;98.20;100279.47;5024444;28;20041;-85
2021/01/08 06:27:54;;;;;;;34.33;16.52;;;1.50;99.90;;;2.00;98.18;100271.50;5018414;28;20029;-85
2021/01/08 06:30:30;;;;;;;80.10;33.15;;;1.50;99.90;;;2.10;98.32;100281.47;5001020;28;20030;-85
2021/01/08 06:33:11;;;;;;;108.25;38.22;;;1.40;99.90;;;2.12;98.20;100280.03;5001217;28;20037;-85
2021/01/08 06:35:47;;;;;;;85.93;31.15;;;1.50;99.90;;;2.11;98.03;100285.84;5001979;28;20422;-85
2021/01/08 06:38:37;;;;;;;59.53;24.55;;;1.50;99.90;;;2.04;97.92;100279.94;5003713;28;20037;-85
2021/01/08 06:41:14;;;;;;;48.45;22.20;;;1.50;99.90;;;2.07;98.04;100284.84;5003219;28;20041;-84
2021/01/08 06:43:57;;;;;;;58.50;24.17;;;1.50;99.90;;;2.06;98.21;100285.97;5003141;28;20037;-83
2021/01/08 06:46:44;;;;;;;47.35;22.88;;;1.50;99.90;;;2.08;98.07;100300.25;5018952;28;20466;-85
2021/01/08 06:49:12;;;;;;;;;;;1.50;99.90;;;2.16;97.79;100295.94;5003105;28;20034;-85
2021/01/08 06:51:43;;;;;;;28.20;15.25;;;1.50;99.90;;;2.10;97.79;100292.47;5042001;28;19963;-85
2021/01/08 06:54:17;;;;;;;43.28;23.70;;;1.50;99.90;;;2.09;97.63;100299.94;5009603;28;20029;-85
2021/01/08 06:56:46;;;;;;;40.67;25.17;;;1.50;99.90;;;2.08;97.29;100298.31;5009320;28;20040;-82
2021/01/08 06:59:20;;;;;;;28.00;18.95;;;1.50;99.90;;;2.08;97.52;100301.06;5008869;28;20028;-85
2021/01/08 07:02:21;;;;;;;24.38;13.90;;;1.50;99.90;;;2.12;97.76;100312.25;5026400;28;20025;-80
2021/01/08 07:04:54;;;;;;;21.98;13.88;;;1.50;99.90;;;2.11;97.60;100318.91;5007118;28;20090;-83
2021/01/08 07:07:30;;;;;;;21.92;11.93;;;1.50;99.90;;;2.10;98.07;100318.09;5005401;28;20064;-83
2021/01/08 07:09:57;;;;;;;21.35;11.90;;;1.50;99.90;;;2.18;97.46;100332.25;5005865;28;20037;-81
2021/01/08 07:12:27;;;;;;;16.58;10.68;;;1.60;99.90;;;2.12;97.53;100328.78;5006733;28;20033;-85
2021/01/08 07:14:58;;;;;;;19.90;10.63;;;1.50;99.90;;;2.13;97.47;100330.44;5004656;28;20030;-85
2021/01/08 07:18:00;;;;;;;18.98;10.48;;;1.50;99.90;;;2.11;97.39;100340.94;5002667;28;20410;-86
2021/01/08 07:20:27;;;;;;;18.15;9.75;;;1.50;99.90;;;2.07;97.33;100340.75;5001681;28;20413;-87
2021/01/08 07:23:02;;;;;;;16.08;9.82;;;1.50;99.90;;;2.06;97.28;100336.38;5003145;28;20034;-82
2021/01/08 07:25:28;;;;;;;18.98;10.85;;;1.50;99.90;;;2.13;97.55;100347.78;5003358;28;20030;-85
2021/01/08 07:27:55;;;;;;;15.32;9.32;;;1.50;99.90;;;2.16;97.31;100357.34;5002002;28;20030;-84
2021/01/08 07:30:22;;;;;;;16.73;9.02;;;1.60;99.90;;;2.10;97.18;100351.16;5002513;28;20036;-86
2021/01/08 07:32:54;;;;;;;15.77;8.95;;;1.50;99.90;;;2.08;96.71;100356.16;5004282;28;20022;-84
2021/01/08 07:35:25;;;;;;;15.05;8.40;;;1.50;99.90;;;2.13;96.64;100369.00;5003161;28;20371;-84
2021/01/08 07:38:18;;;;;;;12.60;8.02;;;1.50;99.90;;;2.03;96.39;100370.03;5001815;28;20053;-83
2021/01/08 07:41:09;;;;;;;;;;;;;;;;;;;;;
2021/01/08 07:43:50;;;;;;;;;;;;;;;;;;;;;
2021/01/08 07:46:56;;;;;;;13.32;7.30;;;1.50;99.90;;;2.02;96.28;100379.41;5019966;28;20098;-83
2021/01/08 07:49:36;;;;;;;14.00;7.25;;;1.50;99.90;;;2.01;96.62;100376.97;5003835;28;20030;-84
2021/01/08 07:52:18;;;;;;;12.43;6.78;;;1.50;99.90;;;1.98;96.35;100388.63;5000838;28;20037;-82
2021/01/08 07:54:53;;;;;;;12.65;6.95;;;1.50;99.90;;;1.99;96.47;100393.00;5001581;28;20056;-82
2021/01/08 07:57:20;;;;;;;14.52;8.50;;;1.50;99.90;;;2.04;96.58;100393.72;5016873;28;20038;-82
2021/01/08 08:00:02;;;;;;;18.33;9.95;;;1.50;99.90;;;2.04;96.49;100401.16;5000356;28;20429;-82
2021/01/08 08:02:48;;;;;;;;;;;;;;;;;;;;;
2021/01/08 08:05:18;;;;;;;23.00;13.20;;;1.50;99.90;;;2.06;96.75;100404.41;5020126;28;20116;-82
2021/01/08 08:08:00;;;;;;;23.13;12.70;;;1.50;99.90;;;2.13;96.78;100413.91;5003004;28;20061;-82
2021/01/08 08:10:49;;;;;;;20.58;12.90;;;1.50;99.90;;;2.01;96.60;100407.28;5002053;28;20037;-83
2021/01/08 08:13:41;;;;;;;;;;;;;;;;;;;;;
2021/01/08 08:16:08;;;;;;;20.98;12.25;;;1.50;99.90;;;2.07;97.05;100419.81;5039612;22;20109;-83
2021/01/08 08:19:18;;;;;;;15.27;8.48;;;1.50;99.90;;;2.05;96.75;100422.91;5022207;28;20022;-85
2021/01/08 08:22:02;;;;;;;18.73;12.88;;;1.50;99.90;;;2.06;97.18;100430.03;5011929;28;20025;-83
2021/01/08 08:24:30;;;;;;;15.38;10.25;;;1.50;99.90;;;2.10;96.70;100436.56;5046045;28;20025;-85
2021/01/08 08:26:56;;;;;;;13.13;9.05;;;1.50;99.90;;;2.10;97.01;100439.31;5042423;28;20084;-85
2021/01/08 08:29:31;;;;;;;14.27;8.65;;;1.50;99.90;;;2.12;97.23;100441.75;5008890;28;20025;-83
2021/01/08 08:31:57;;;;;;;15.67;8.83;;;1.50;99.90;;;2.16;97.39;100451.03;5008757;28;20068;-85
2021/01/08 08:34:30;;;;;;;14.75;8.27;;;1.50;99.90;;;2.13;97.08;100435.13;5009309;28;20026;-83
2021/01/08 08:37:22;;;;;;;14.35;8.40;;;1.50;99.90;;;2.17;97.26;100452.69;5010892;28;20097;-83
2021/01/08 08:40:00;;;;;;;14.65;7.82;;;1.60;99.90;;;2.22;97.04;100448.97;5025656;28;20034;-84
2021/01/08 08:42:27;;;;;;;15.70;8.57;;;1.50;99.90;;;2.26;96.63;100450.81;5020909;28;20513;-84
2021/01/08 08:44:53;;;;;;;13.98;8.18;;;1.60;99.90;;;2.22;96.38;100457.25;5002163;28;20079;-85
2021/01/08 08:47:20;;;;;;;15.45;7.85;;;1.60;99.90;;;2.19;96.69;100460.63;5001708;28;20034;-85
2021/01/08 08:49:48;;;;;;;15.52;9.00;;;1.60;99.90;;;2.20;97.18;100465.84;5002841;28;20032;-84
2021/01/08 08:52:27;;;;;;;17.42;9.27;;;1.60;99.90;;;2.23;96.87;100465.22;5005175;28;20026;-87
2021/01/08 08:54:53;;;;;;;18.13;8.98;;;1.60;99.90;;;2.25;97.22;100468.47;5008142;28;20028;-84
2021/01/08 08:57:21;;;;;;;14.50;8.10;;;1.60;99.90;;;2.26;97.05;100461.84;5018105;28;20164;-85
2021/01/08 08:59:47;;;;;;;15.57;8.68;;;1.70;99.90;;;2.29;96.97;100460.41;5000887;28;20072;-87
2021/01/08 09:02:25;;;;;;;16.35;8.52;;;1.60;99.90;;;2.27;96.97;100469.00;5001121;28;20060;-85
2021/01/08 09:05:02;;;;;;;17.45;10.02;;;1.60;99.90;;;2.34;97.62;100477.69;5023369;28;20057;-87
2021/01/08 09:07:54;;;;;;;19.48;9.45;;;1.70;99.90;;;2.31;97.57;100464.47;4999564;28;20179;-85
2021/01/08 09:10:30;;;;;;;15.90;9.13;;;1.70;99.90;;;2.34;97.22;100477.69;4999096;28;20037;-84
2021/01/08 09:13:34;;;;;;;17.33;8.90;;;1.70;99.90;;;2.32;97.09;100474.41;5000029;28;20033;-84
2021/01/08 09:16:36;;;;;;;13.85;7.97;;;1.70;99.90;;;2.32;97.74;100482.66;4999503;28;20030;-85
2021/01/08 09:19:20;;;;;;;20.02;8.88;;;1.70;99.90;;;2.29;97.71;100488.78;4999087;28;20030;-87
2021/01/08 09:21:50;;;;;;;19.15;8.95;;;1.70;99.90;;;2.34;97.39;100491.47;4999429;28;20381;-86
2021/01/08 09:24:30;;;;;;;15.68;8.30;;;1.70;99.90;;;2.32;97.61;100492.88;5017567;28;20073;-85
2021/01/08 09:27:08;;;;;;;13.60;7.88;;;1.70;99.90;;;2.36;97.14;100499.41;5000860;28;20037;-85
2021/01/08 09:29:37;;;;;;;15.45;8.68;;;1.70;99.90;;;2.40;97.25;100501.25;5005747;28;20029;-86
2021/01/08 09:32:06;;;;;;;14.90;7.68;;;1.80;99.90;;;2.44;97.31;100506.97;5018665;28;20025;-82
2021/01/08 09:34:35;;;;;;;14.63;8.20;;;1.80;99.90;;;2.48;96.84;100511.53;5016662;28;20092;-86
2021/01/08 09:37:23;;;;;;;15.38;6.93;;;1.80;99.90;;;2.54;97.02;100512.25;5005825;28;20101;-85
2021/01/08 09:39:49;;;;;;;13.52;7.38;;;1.80;99.90;;;2.60;96.81;100511.03;5001063;28;20034;-84
2021/01/08 09:42:16;;;;;;;11.60;6.43;;;1.90;99.90;;;2.63;96.17;100511.22;5001225;28;20034;-85
2021/01/08 09:44:42;;;;;;;12.57;6.57;;;1.90;99.90;;;2.72;96.85;100514.06;5008331;28;20029;-84
2021/01/08 09:47:16;;;;;;;13.75;6.32;;;2.00;99.90;;;2.84;96.75;100511.59;5006287;28;20041;-84
2021/01/08 09:49:53;;;;;;;12.77;6.88;;;2.10;99.90;;;2.92;96.27;100518.31;5003584;28;20053;-83
2021/01/08 09:52:28;;;;;;;11.07;6.35;;;2.20;99.90;;;2.98;95.22;100514.31;5001684;28;20030;-84
2021/01/08 09:54:55;;;;;;;11.88;5.95;;;2.20;99.90;;;2.98;95.19;100519.84;5005685;28;20029;-82
2021/01/08 09:57:37;;;;;;;11.48;6.13;;;2.30;99.90;;;3.03;94.37;100514.19;5024545;28;20034;-83
2021/01/08 10:00:06;;;;;;;13.23;6.80;;;2.30;99.90;;;3.03;94.42;100523.28;5003139;28;20034;-83
2021/01/08 10:02:42;;;;;;;12.45;7.10;;;2.30;99.90;;;3.09;94.65;100523.97;5001472;28;20033;-83
2021/01/08 10:05:32;;;;;;;12.80;6.88;;;2.40;99.90;;;3.13;94.71;100519.47;5001094;28;20068;-83
2021/01/08 10:08:01;;;;;;;12.63;6.68;;;2.40;99.90;;;3.13;94.35;100525.81;5019186;28;20162;-84
2021/01/08 10:10:27;;;;;;;14.20;7.40;;;2.40;99.90;;;3.16;94.17;100522.44;5000486;28;20038;-82
2021/01/08 10:12:58;;;;;;;12.55;7.22;;;2.40;99.90;;;3.21;94.07;100520.69;5002036;28;20026;-87
2021/01/08 10:16:06;;;;;;;12.90;7.00;;;2.50;99.90;;;3.33;93.12;100521.75;5019873;28;20084;-85
2021/01/08 10:18:34;;;;;;;14.73;9.15;;;2.60;99.90;;;3.41;93.49;100529.28;4983974;28;20057;-85
2021/01/08 10:21:13;;;;;;;13.30;8.82;;;2.60;99.90;;;3.44;92.41;100520.38;5006523;28;20034;-83
2021/01/08 10:23:48;;;;;;;14.38;9.13;;;2.70;99.90;;;3.37;92.88;100517.22;5001188;28;20065;-84
2021/01/08 10:26:28;;;;;;;;;;;;;;;;;;;;;
2021/01/08 10:28:58;;;;;;;10.13;5.80;;;2.60;99.90;;;3.28;92.29;100521.88;5017796;28;20089;-85
2021/01/08 10:31:28;;;;;;;11.60;6.43;;;2.60;99.90;;;3.32;92.71;100528.41;5001339;28;20033;-84
2021/01/08 10:33:59;;;;;;;11.20;6.03;;;2.60;99.90;;;3.30;92.24;100530.66;5003049;28;20077;-85
2021/01/08 10:36:34;;;;;;;8.75;5.95;;;2.60;99.90;;;3.31;92.62;100537.00;5001441;28;20499;-85
2021/01/08 10:39:01;;;;;;;10.40;6.28;;;2.60;99.90;;;3.29;92.87;100536.50;4999766;28;20026;-84
2021/01/08 10:41:27;;;;;;;11.35;6.80;;;2.60;99.90;;;3.27;92.62;100533.25;5000190;28;20107;-85